createdAt,value
2018-08-19T00:02:21.186Z,9.87
2018-08-19T00:05:08.633Z,8.93
2018-08-19T00:07:38.017Z,9.83
2018-08-19T00:10:07.573Z,8.63
2018-08-19T00:12:47.345Z,7.40
2018-08-19T00:15:16.809Z,8.57
2018-08-19T00:17:46.112Z,8.23
2018-08-19T00:20:15.581Z,9.57
2018-08-19T00:22:45.125Z,8.53
2018-08-19T00:25:30.835Z,9.53
2018-08-19T00:28:00.589Z,10.20
2018-08-19T00:30:32.498Z,9.03
2018-08-19T00:33:02.337Z,10.30
2018-08-19T00:35:32.357Z,7.57
2018-08-19T00:38:02.026Z,10.20
2018-08-19T00:40:31.589Z,9.57
2018-08-19T00:43:01.020Z,9.80
2018-08-19T00:45:30.390Z,10.00
2018-08-19T00:47:59.761Z,12.27
2018-08-19T00:50:29.110Z,11.77
2018-08-19T00:52:58.507Z,9.35
2018-08-19T00:55:31.983Z,10.33
2018-08-19T00:58:01.374Z,12.67
2018-08-19T01:00:30.702Z,14.80
2018-08-19T01:03:00.067Z,10.87
2018-08-19T01:05:29.543Z,11.60
2018-08-19T01:07:58.964Z,12.63
2018-08-19T01:10:28.343Z,11.40
2018-08-19T01:12:57.755Z,13.03
2018-08-19T01:15:27.453Z,11.77
2018-08-19T01:17:58.064Z,14.13
2018-08-19T01:20:27.428Z,11.83
2018-08-19T01:22:56.785Z,11.60
2018-08-19T01:25:26.179Z,11.73
2018-08-19T01:27:55.923Z,11.27
2018-08-19T01:30:27.002Z,12.47
2018-08-19T01:32:56.389Z,12.20
2018-08-19T01:35:31.039Z,12.30
2018-08-19T01:38:00.546Z,11.67
2018-08-19T01:40:29.878Z,14.18
2018-08-19T01:42:59.201Z,12.77
2018-08-19T01:45:28.575Z,11.00
2018-08-19T01:47:57.927Z,10.77
2018-08-19T01:50:27.335Z,11.03
2018-08-19T01:52:56.633Z,11.10
2018-08-19T01:55:25.972Z,18.40
2018-08-19T01:57:56.790Z,11.27
2018-08-19T02:00:26.154Z,11.67
2018-08-19T02:02:59.703Z,12.90
2018-08-19T02:05:29.130Z,12.17
2018-08-19T02:08:01.504Z,12.17
2018-08-19T02:10:32.266Z,11.87
2018-08-19T02:13:02.077Z,10.77
2018-08-19T02:15:32.321Z,11.10
2018-08-19T02:18:06.073Z,9.57
2018-08-19T02:20:42.382Z,10.33
2018-08-19T02:23:12.815Z,12.10
2018-08-19T02:25:45.337Z,11.77
2018-08-19T02:28:16.873Z,9.53
2018-08-19T02:31:04.429Z,11.03
2018-08-19T02:33:36.003Z,11.20
2018-08-19T02:36:07.065Z,11.87
2018-08-19T02:38:37.765Z,9.93
2018-08-19T02:41:07.542Z,10.37
2018-08-19T02:43:46.312Z,10.43
2018-08-19T02:46:15.673Z,11.10
2018-08-19T02:48:49.353Z,11.63
2018-08-19T02:51:20.887Z,10.30
2018-08-19T02:53:51.234Z,11.80
2018-08-19T02:56:21.037Z,10.40
2018-08-19T02:58:50.398Z,13.10
2018-08-19T03:01:19.930Z,11.63
2018-08-19T03:03:49.866Z,9.15
2018-08-19T03:06:19.890Z,10.68
2018-08-19T03:09:00.069Z,11.83
2018-08-19T03:11:29.478Z,12.90
2018-08-19T03:13:58.831Z,11.83
2018-08-19T03:16:28.207Z,11.70
2018-08-19T03:18:57.589Z,9.88
2018-08-19T03:21:26.944Z,9.27
2018-08-19T03:23:56.330Z,10.37
2018-08-19T03:26:25.706Z,11.43
2018-08-19T03:28:55.037Z,10.27
2018-08-19T03:31:24.349Z,10.67
2018-08-19T03:33:54.036Z,11.80
2018-08-19T03:36:23.419Z,8.93
2018-08-19T03:38:55.338Z,11.73
2018-08-19T03:41:24.643Z,10.58
2018-08-19T03:43:59.070Z,11.73
2018-08-19T03:46:29.722Z,10.07
2018-08-19T03:48:59.081Z,10.83
2018-08-19T03:51:28.443Z,10.60
2018-08-19T03:53:57.806Z,12.25
2018-08-19T03:56:27.993Z,12.17
2018-08-19T03:58:59.482Z,10.77
2018-08-19T04:01:43.210Z,11.10
2018-08-19T04:04:14.474Z,10.50
2018-08-19T04:06:44.085Z,11.50
2018-08-19T04:09:13.462Z,9.40
2018-08-19T04:11:42.821Z,10.43
2018-08-19T04:14:27.026Z,10.63
2018-08-19T04:16:59.064Z,11.73
2018-08-19T04:19:29.105Z,15.53
2018-08-19T04:22:02.163Z,12.17
2018-08-19T04:24:31.868Z,10.77
2018-08-19T04:27:09.375Z,10.70
2018-08-19T04:29:39.185Z,10.40
2018-08-19T04:32:16.280Z,13.43
2018-08-19T04:34:45.613Z,12.60
2018-08-19T04:37:15.817Z,11.87
2018-08-19T04:39:45.176Z,13.67
2018-08-19T04:42:14.699Z,10.87
2018-08-19T04:44:43.905Z,11.80
2018-08-19T04:47:30.310Z,13.60
2018-08-19T04:49:59.629Z,12.05
2018-08-19T04:52:28.944Z,11.48
2018-08-19T04:54:58.279Z,10.23
2018-08-19T04:57:27.608Z,12.17
2018-08-19T04:59:56.921Z,11.75
2018-08-19T05:02:26.284Z,12.13
2018-08-19T05:04:55.562Z,11.08
2018-08-19T05:07:24.874Z,14.45
2018-08-19T05:09:54.162Z,11.75
2018-08-19T05:12:23.486Z,15.70
2018-08-19T05:14:52.817Z,15.20
2018-08-19T05:17:22.100Z,15.17
2018-08-19T05:19:52.724Z,14.20
2018-08-19T05:22:22.097Z,14.35
2018-08-19T05:24:51.422Z,15.97
2018-08-19T05:27:20.796Z,16.03
2018-08-19T05:29:50.195Z,14.43
2018-08-19T05:32:20.110Z,13.90
2018-08-19T05:34:50.134Z,15.50
2018-08-19T05:50:49.702Z,16.30
2018-08-19T05:53:20.531Z,15.10
2018-08-19T05:55:50.266Z,16.23
2018-08-19T05:58:20.714Z,15.40
2018-08-19T06:00:53.303Z,15.50
2018-08-19T06:03:22.998Z,15.90
2018-08-19T06:05:52.315Z,14.67
2018-08-19T06:08:21.662Z,13.93
2018-08-19T06:10:51.057Z,19.03
2018-08-19T06:13:20.406Z,16.97
2018-08-19T06:15:50.201Z,20.20
2018-08-19T06:18:20.193Z,18.00
2018-08-19T06:20:50.259Z,16.40
2018-08-19T06:23:22.088Z,17.27
2018-08-19T06:25:51.442Z,19.27
2018-08-19T06:28:20.823Z,16.77
2018-08-19T06:30:50.314Z,17.07
2018-08-19T06:33:20.281Z,19.75
2018-08-19T06:35:50.332Z,17.87
2018-08-19T06:38:20.354Z,18.75
2018-08-19T06:40:50.312Z,18.48
2018-08-19T06:43:20.221Z,19.05
2018-08-19T06:45:50.276Z,20.60
2018-08-19T06:48:20.291Z,17.45
2018-08-19T06:50:50.235Z,20.00
2018-08-19T06:53:25.540Z,18.85
2018-08-19T06:55:54.932Z,19.85
2018-08-19T06:58:25.717Z,18.77
2018-08-19T07:00:55.030Z,20.50
2018-08-19T07:03:24.406Z,23.47
2018-08-19T07:08:53.843Z,21.62
2018-08-19T07:11:23.380Z,21.27
2018-08-19T07:13:52.749Z,36.93
2018-08-19T07:16:22.181Z,23.17
2018-08-19T07:18:51.529Z,22.17
2018-08-19T07:21:20.840Z,23.50
2018-08-19T07:23:50.467Z,22.80
2018-08-19T07:26:20.334Z,19.70
2018-08-19T07:28:50.312Z,18.48
2018-08-19T07:31:20.402Z,21.45
2018-08-19T07:33:50.359Z,21.30
2018-08-19T07:36:20.438Z,19.12
2018-08-19T07:38:50.370Z,20.12
2018-08-19T07:41:20.354Z,20.70
2018-08-19T07:43:50.425Z,19.87
2018-08-19T07:46:20.329Z,17.20
2018-08-19T07:48:50.353Z,16.62
2018-08-19T07:51:20.349Z,17.33
2018-08-19T07:53:50.427Z,16.07
2018-08-19T07:56:20.372Z,16.73
2018-08-19T07:58:54.597Z,18.48
2018-08-19T08:01:23.960Z,21.53
2018-08-19T08:03:53.622Z,18.20
2018-08-19T08:06:22.941Z,18.27
2018-08-19T08:08:52.260Z,20.80
2018-08-19T08:11:21.573Z,17.90
2018-08-19T08:13:50.953Z,17.30
2018-08-19T08:16:20.434Z,18.13
2018-08-19T08:18:50.646Z,16.80
2018-08-19T08:21:20.512Z,17.93
2018-08-19T08:23:50.509Z,21.17
2018-08-19T08:26:20.383Z,19.17
2018-08-19T08:28:55.662Z,18.12
2018-08-19T08:31:24.939Z,19.52
2018-08-19T08:33:54.281Z,18.83
2018-08-19T08:36:23.625Z,17.70
2018-08-19T08:38:52.916Z,16.17
2018-08-19T08:41:22.289Z,15.37
2018-08-19T08:43:51.601Z,18.23
2018-08-19T08:46:20.927Z,19.63
2018-08-19T08:48:50.491Z,19.70
2018-08-19T08:51:20.473Z,17.27
2018-08-19T08:53:50.536Z,20.80
2018-08-19T08:56:20.614Z,15.68
2018-08-19T08:58:50.575Z,19.12
2018-08-19T09:01:20.491Z,24.00
2018-08-19T09:03:50.500Z,20.77
2018-08-19T09:06:25.653Z,19.60
2018-08-19T09:08:54.951Z,21.48
2018-08-19T09:11:24.320Z,21.23
2018-08-19T09:13:54.131Z,20.47
2018-08-19T09:16:23.450Z,20.43
2018-08-19T09:18:52.864Z,20.10
2018-08-19T09:21:22.249Z,18.20
2018-08-19T09:23:51.559Z,23.03
2018-08-19T09:26:20.875Z,16.67
2018-08-19T09:28:51.220Z,17.10
2018-08-19T09:34:00.526Z,17.73
2018-08-19T09:36:29.829Z,21.67
2018-08-19T09:38:59.201Z,18.57
2018-08-19T09:41:28.553Z,17.15
2018-08-19T09:43:57.871Z,23.30
2018-08-19T09:46:27.243Z,18.23
2018-08-19T09:48:56.633Z,22.37
2018-08-19T09:51:26.008Z,18.87
2018-08-19T09:53:55.324Z,21.57
2018-08-19T09:56:28.741Z,19.13
2018-08-19T09:59:05.377Z,14.07
2018-08-19T10:01:40.816Z,18.55
2018-08-19T10:04:25.463Z,15.80
2018-08-19T10:07:02.380Z,15.10
2018-08-19T10:09:31.681Z,20.83
2018-08-19T10:12:00.981Z,14.43
2018-08-19T10:14:30.318Z,15.37
2018-08-19T10:16:59.668Z,19.62
2018-08-19T10:19:28.964Z,13.93
2018-08-19T10:21:58.321Z,17.23
2018-08-19T10:24:28.948Z,16.00
2018-08-19T10:26:58.653Z,14.03
2018-08-19T10:29:27.971Z,13.60
2018-08-19T10:32:00.845Z,13.83
2018-08-19T10:34:34.188Z,15.03
2018-08-19T10:37:04.005Z,13.27
2018-08-19T10:39:33.312Z,14.23
2018-08-19T10:42:20.981Z,13.20
2018-08-19T10:44:51.813Z,10.38
2018-08-19T10:47:21.756Z,14.87
2018-08-19T10:49:59.769Z,17.03
2018-08-19T10:52:30.602Z,11.47
2018-08-19T10:55:01.095Z,12.87
2018-08-19T10:57:30.447Z,12.35
2018-08-19T11:00:00.130Z,11.23
2018-08-19T11:02:29.486Z,13.33
2018-08-19T11:05:00.185Z,9.90
2018-08-19T11:07:29.488Z,12.73
2018-08-19T11:10:27.298Z,13.85
2018-08-19T11:12:57.748Z,12.33
2018-08-19T11:15:44.253Z,12.73
2018-08-19T11:18:32.113Z,15.73
2018-08-19T11:21:05.925Z,13.53
2018-08-19T11:23:38.463Z,14.33
2018-08-19T11:26:08.235Z,12.07
2018-08-19T11:28:40.058Z,13.60
2018-08-19T11:31:17.063Z,11.87
2018-08-19T11:33:46.422Z,13.27
2018-08-19T11:36:15.708Z,14.85
2018-08-19T11:38:51.318Z,14.83
2018-08-19T11:41:21.215Z,12.70
2018-08-19T11:43:51.259Z,12.90
2018-08-19T11:46:20.888Z,14.47
2018-08-19T11:48:55.394Z,10.43
2018-08-19T11:51:55.024Z,12.17
2018-08-19T11:54:25.183Z,12.87
2018-08-19T11:57:02.204Z,10.33
2018-08-19T11:59:39.093Z,11.73
2018-08-19T12:02:18.649Z,12.37
2018-08-19T12:04:48.277Z,11.70
2018-08-19T12:07:18.146Z,14.80
2018-08-19T12:09:54.911Z,10.00
2018-08-19T12:12:43.216Z,10.60
2018-08-19T12:15:19.322Z,10.87
2018-08-19T12:17:48.662Z,13.77
2018-08-19T12:20:23.072Z,13.30
2018-08-19T12:22:52.382Z,11.07
2018-08-19T12:40:29.843Z,9.30
2018-08-19T12:42:59.171Z,12.00
2018-08-19T12:45:28.490Z,12.77
2018-08-19T12:48:04.417Z,12.95
2018-08-19T12:50:33.751Z,9.40
2018-08-19T12:53:03.084Z,8.80
2018-08-19T12:55:32.486Z,9.95
2018-08-19T12:58:07.104Z,9.23
2018-08-19T13:04:51.261Z,11.17
2018-08-19T13:07:20.955Z,8.80
2018-08-19T13:09:51.465Z,8.83
2018-08-19T13:12:20.973Z,9.30
2018-08-19T13:14:51.102Z,10.23
2018-08-19T13:17:20.982Z,10.13
2018-08-19T13:19:59.071Z,9.53
2018-08-19T13:22:28.903Z,8.67
2018-08-19T13:24:58.256Z,12.73
2018-08-19T13:27:27.578Z,9.13
2018-08-19T13:29:56.878Z,9.13
2018-08-19T13:32:26.169Z,8.23
2018-08-19T13:34:55.490Z,8.70
2018-08-19T13:37:24.886Z,10.63
2018-08-19T13:39:54.193Z,10.67
2018-08-19T13:42:23.496Z,9.27
2018-08-19T13:44:53.980Z,8.83
2018-08-19T13:47:23.280Z,8.93
2018-08-19T13:49:52.541Z,9.00
2018-08-19T13:52:21.876Z,9.53
2018-08-19T13:55:01.535Z,9.70
2018-08-19T13:57:30.884Z,9.73
2018-08-19T14:00:00.290Z,13.67
2018-08-19T14:02:29.605Z,10.38
2018-08-19T14:04:58.941Z,8.27
2018-08-19T14:07:28.237Z,9.73
2018-08-19T14:09:57.562Z,9.88
2018-08-19T14:12:26.971Z,9.67
2018-08-19T14:14:56.899Z,10.17
2018-08-19T14:17:26.205Z,7.92
2018-08-19T14:19:55.534Z,8.85
2018-08-19T14:22:24.897Z,8.30
2018-08-19T14:24:54.173Z,8.93
2018-08-19T14:27:23.542Z,14.07
2018-08-19T14:29:52.876Z,9.60
2018-08-19T14:32:35.171Z,8.80
2018-08-19T14:35:05.053Z,8.20
2018-08-19T14:37:34.416Z,7.73
2018-08-19T14:40:04.948Z,10.00
2018-08-19T14:42:34.195Z,8.47
2018-08-19T14:45:03.594Z,9.08
2018-08-19T14:47:32.979Z,7.33
2018-08-19T14:50:02.324Z,7.25
2018-08-19T14:52:31.663Z,8.47
2018-08-19T14:55:00.993Z,8.23
2018-08-19T14:57:30.321Z,7.30
2018-08-19T14:59:59.699Z,7.90
2018-08-19T15:02:29.071Z,10.83
2018-08-19T15:04:58.420Z,9.70
2018-08-19T15:07:27.747Z,8.88
2018-08-19T15:09:57.201Z,9.43
2018-08-19T15:12:27.193Z,9.70
2018-08-19T15:14:59.964Z,8.50
2018-08-19T15:17:29.312Z,7.32
2018-08-19T15:19:58.714Z,11.27
2018-08-19T15:22:28.058Z,7.80
2018-08-19T15:24:57.363Z,9.47
2018-08-19T15:27:26.673Z,7.00
2018-08-19T15:29:56.008Z,7.37
2018-08-19T15:32:25.709Z,9.48
2018-08-19T15:34:54.820Z,8.77
2018-08-19T15:37:24.201Z,9.03
2018-08-19T15:39:53.531Z,9.57
2018-08-19T15:42:22.965Z,9.20
2018-08-19T15:44:52.848Z,12.00
2018-08-19T15:47:22.193Z,7.17
2018-08-19T15:50:09.598Z,8.80
2018-08-19T15:52:39.107Z,9.97
2018-08-19T15:55:08.471Z,7.60
2018-08-19T15:57:37.766Z,8.60
2018-08-19T16:00:08.254Z,12.87
2018-08-19T16:02:37.563Z,10.53
2018-08-19T16:05:22.045Z,8.73
2018-08-19T16:07:51.446Z,15.95
2018-08-19T16:10:21.600Z,8.48
2018-08-19T16:12:52.620Z,8.83
2018-08-19T16:15:24.100Z,7.63
2018-08-19T16:18:00.146Z,10.68
2018-08-19T16:20:29.582Z,10.55
2018-08-19T16:22:59.052Z,9.63
2018-08-19T16:25:28.430Z,11.07
2018-08-19T16:27:57.762Z,7.43
2018-08-19T16:30:27.054Z,9.03
2018-08-19T16:32:56.491Z,10.25
2018-08-19T16:35:25.874Z,9.43
2018-08-19T16:37:55.218Z,10.13
2018-08-19T16:40:24.554Z,10.30
2018-08-19T16:42:53.889Z,10.73
2018-08-19T16:45:23.248Z,7.30
2018-08-19T16:47:52.616Z,7.90
2018-08-19T16:50:22.055Z,7.73
2018-08-19T16:52:51.614Z,8.58
2018-08-19T16:55:21.607Z,9.58
2018-08-19T16:57:51.619Z,7.97
2018-08-19T17:00:21.549Z,8.30
2018-08-19T17:02:51.653Z,9.45
2018-08-19T17:05:31.881Z,7.78
2018-08-19T17:08:01.189Z,9.47
2018-08-19T17:10:30.810Z,8.40
2018-08-19T17:13:00.193Z,7.80
2018-08-19T17:15:29.858Z,10.53
2018-08-19T17:17:59.790Z,8.60
2018-08-19T17:20:29.109Z,9.67
2018-08-19T17:22:58.479Z,8.13
2018-08-19T17:25:28.275Z,8.63
2018-08-19T17:28:04.481Z,10.50
2018-08-19T17:30:34.083Z,9.68
2018-08-19T17:33:09.472Z,10.80
2018-08-19T17:35:40.206Z,9.47
2018-08-19T17:38:09.580Z,9.35
2018-08-19T17:40:38.945Z,8.77
2018-08-19T17:43:08.516Z,13.13
2018-08-19T17:45:37.974Z,9.07
2018-08-19T17:48:07.322Z,8.03
2018-08-19T17:50:39.301Z,8.35
2018-08-19T17:53:09.084Z,10.27
2018-08-19T17:55:38.413Z,8.50
2018-08-19T17:58:08.133Z,8.80
2018-08-19T18:00:37.472Z,10.93
2018-08-19T18:03:06.894Z,11.33
2018-08-19T18:05:36.276Z,7.43
2018-08-19T18:08:05.620Z,8.67
2018-08-19T18:10:35.068Z,8.60
2018-08-19T18:13:04.454Z,10.90
2018-08-19T18:15:33.834Z,9.73
2018-08-19T18:18:06.485Z,9.50
2018-08-19T18:20:38.129Z,9.55
2018-08-19T18:23:15.015Z,7.70
2018-08-19T18:25:48.691Z,7.93
2018-08-19T18:28:25.353Z,10.60
2018-08-19T18:31:01.247Z,8.48
2018-08-19T18:33:30.606Z,13.80
2018-08-19T18:36:00.034Z,9.57
2018-08-19T18:38:31.878Z,9.60
2018-08-19T18:41:01.183Z,8.40
2018-08-19T18:43:30.475Z,9.27
2018-08-19T18:45:59.812Z,7.70
2018-08-19T18:48:29.023Z,7.83
2018-08-19T18:50:58.337Z,6.90
2018-08-19T18:53:28.728Z,8.43
2018-08-19T18:55:58.087Z,20.93
2018-08-19T18:58:27.422Z,9.77
2018-08-19T19:00:59.727Z,10.00
2018-08-19T19:03:36.242Z,9.93
2018-08-19T19:06:05.561Z,10.50
2018-08-19T19:08:35.033Z,28.62
2018-08-19T19:11:05.577Z,17.73
2018-08-19T19:13:35.869Z,9.20
2018-08-19T19:16:05.217Z,10.20
2018-08-19T19:18:34.594Z,7.57
2018-08-19T19:21:05.547Z,9.73
2018-08-19T19:23:39.279Z,6.50
2018-08-19T19:26:09.226Z,8.30
2018-08-19T19:28:38.636Z,8.27
2018-08-19T19:31:13.313Z,7.58
2018-08-19T19:33:42.679Z,6.77
2018-08-19T19:36:17.278Z,6.83
2018-08-19T19:38:52.014Z,8.50
2018-08-19T19:41:32.677Z,5.75
2018-08-19T19:44:23.567Z,7.67
2018-08-19T19:46:53.938Z,6.78
2018-08-19T19:49:23.642Z,6.03
2018-08-19T19:51:57.443Z,7.10
2018-08-19T19:54:28.255Z,5.95
2018-08-19T19:56:57.593Z,5.57
2018-08-19T19:59:29.855Z,5.30
2018-08-19T20:01:59.238Z,6.67
2018-08-19T20:04:28.471Z,8.03
2018-08-19T20:06:57.841Z,6.03
2018-08-19T20:09:27.177Z,5.75
2018-08-19T20:11:56.448Z,6.63
2018-08-19T20:14:25.787Z,6.27
2018-08-19T20:16:55.094Z,5.27
2018-08-19T20:19:24.394Z,7.00
2018-08-19T20:21:53.711Z,6.03
2018-08-19T20:24:22.999Z,5.43
2018-08-19T20:26:52.307Z,5.77
2018-08-19T20:29:21.996Z,6.40
2018-08-19T20:31:52.053Z,5.42
2018-08-19T20:34:22.048Z,6.37
2018-08-19T20:36:52.083Z,8.00
2018-08-19T20:39:22.065Z,6.53
2018-08-19T20:41:55.009Z,7.03
2018-08-19T20:44:24.337Z,6.80
2018-08-19T20:46:57.882Z,6.07
2018-08-19T20:49:27.934Z,6.53
2018-08-19T20:51:57.726Z,7.07
2018-08-19T20:54:27.057Z,7.23
2018-08-19T20:56:56.341Z,6.95
2018-08-19T20:59:35.075Z,6.20
2018-08-19T21:02:05.754Z,6.75
2018-08-19T21:04:35.118Z,6.17
2018-08-19T21:07:05.425Z,6.25
2018-08-19T21:09:35.941Z,7.43
2018-08-19T21:12:05.301Z,7.85
2018-08-19T21:14:34.731Z,6.80
2018-08-19T21:17:05.618Z,6.13
2018-08-19T21:19:35.444Z,7.57
2018-08-19T21:22:04.758Z,6.50
2018-08-19T21:24:34.064Z,6.70
2018-08-19T21:27:03.620Z,6.50
2018-08-19T21:29:33.194Z,8.73
2018-08-19T21:32:02.488Z,7.73
2018-08-19T21:34:31.816Z,7.27
2018-08-19T21:37:01.244Z,6.70
2018-08-19T21:39:30.575Z,6.33
2018-08-19T21:42:00.425Z,8.40
2018-08-19T21:44:29.782Z,8.27
2018-08-19T21:46:59.111Z,7.78
2018-08-19T21:49:28.418Z,8.50
2018-08-19T21:51:57.775Z,9.68
2018-08-19T21:54:27.050Z,8.53
2018-08-19T21:56:56.351Z,8.38
2018-08-19T21:59:25.955Z,9.50
2018-08-19T22:01:57.415Z,11.43
2018-08-19T22:04:26.937Z,9.90
2018-08-19T22:06:56.327Z,9.00
2018-08-19T22:09:36.468Z,11.37
2018-08-19T22:12:07.528Z,9.30
2018-08-19T22:14:36.832Z,10.67
2018-08-19T22:17:09.121Z,9.60
2018-08-19T22:19:38.844Z,10.63
2018-08-19T22:22:08.451Z,8.90
2018-08-19T22:24:37.989Z,10.70
2018-08-19T22:27:16.477Z,9.65
2018-08-19T22:29:45.798Z,9.23
2018-08-19T22:32:15.076Z,9.10
2018-08-19T22:34:44.373Z,9.43
2018-08-19T22:37:13.721Z,10.30
2018-08-19T22:39:43.069Z,9.80
2018-08-19T22:42:12.354Z,11.03
2018-08-19T22:44:41.698Z,10.23
2018-08-19T22:47:10.996Z,9.33
2018-08-19T22:49:40.313Z,9.80
2018-08-19T22:52:21.980Z,10.03
2018-08-19T22:54:55.439Z,11.75
2018-08-19T22:57:25.111Z,8.63
2018-08-19T22:59:54.590Z,12.93
2018-08-19T23:02:24.285Z,9.03
2018-08-19T23:04:53.638Z,11.03
2018-08-19T23:07:22.945Z,12.03
2018-08-19T23:09:52.441Z,10.45
2018-08-19T23:12:22.426Z,8.63
2018-08-19T23:15:09.357Z,9.07
2018-08-19T23:17:38.668Z,8.97
2018-08-19T23:20:08.044Z,10.93
2018-08-19T23:22:37.297Z,10.38
2018-08-19T23:25:07.087Z,9.00
2018-08-19T23:27:36.420Z,9.05
2018-08-19T23:30:06.046Z,11.90
2018-08-19T23:32:35.334Z,12.53
2018-08-19T23:35:04.806Z,8.77
2018-08-19T23:37:34.107Z,11.43
2018-08-19T23:40:03.491Z,11.78
2018-08-19T23:42:32.808Z,12.63
2018-08-19T23:45:02.154Z,12.23
2018-08-19T23:47:31.510Z,11.43
2018-08-19T23:50:00.807Z,10.83
2018-08-19T23:52:30.109Z,13.07
2018-08-19T23:54:59.402Z,16.83
2018-08-19T23:57:28.704Z,9.80
2018-08-19T23:59:58.072Z,15.17
